sensor_id;sensor_type;location;lat;lon;timestamp;P1;durP1;ratioP1;P2;durP2;ratioP2
15230;SDS011;32569;51.762;8.564;2023-03-26T00:01:34;6.37;;;4.13;;
15230;SDS011;32569;51.762;8.564;2023-03-26T00:04:01;7.20;;;3.13;;
15230;SDS011;32569;51.762;8.564;2023-03-26T00:06:30;7.00;;;3.50;;
15230;SDS011;32569;51.762;8.564;2023-03-26T00:09:02;7.43;;;3.10;;
15230;SDS011;32569;51.762;8.564;2023-03-26T00:11:30;4.93;;;2.70;;
15230;SDS011;32569;51.762;8.564;2023-03-26T00:13:56;5.53;;;3.20;;
15230;SDS011;32569;51.762;8.564;2023-03-26T00:16:24;4.47;;;2.97;;
15230;SDS011;32569;51.762;8.564;2023-03-26T00:18:52;6.70;;;3.20;;
15230;SDS011;32569;51.762;8.564;2023-03-26T00:21:20;4.40;;;3.13;;
15230;SDS011;32569;51.762;8.564;2023-03-26T00:23:51;3.70;;;3.17;;
15230;SDS011;32569;51.762;8.564;2023-03-26T00:26:20;4.80;;;3.57;;
15230;SDS011;32569;51.762;8.564;2023-03-26T00:28:48;5.53;;;3.70;;
15230;SDS011;32569;51.762;8.564;2023-03-26T00:31:15;5.10;;;3.20;;
15230;SDS011;32569;51.762;8.564;2023-03-26T00:33:41;3.83;;;3.30;;
15230;SDS011;32569;51.762;8.564;2023-03-26T00:36:09;4.00;;;3.60;;
15230;SDS011;32569;51.762;8.564;2023-03-26T00:38:38;4.63;;;3.67;;
15230;SDS011;32569;51.762;8.564;2023-03-26T00:41:06;4.17;;;3.77;;
15230;SDS011;32569;51.762;8.564;2023-03-26T00:43:45;6.07;;;4.20;;
15230;SDS011;32569;51.762;8.564;2023-03-26T00:46:15;6.03;;;4.10;;
15230;SDS011;32569;51.762;8.564;2023-03-26T00:48:42;4.17;;;3.77;;
15230;SDS011;32569;51.762;8.564;2023-03-26T00:51:09;4.80;;;3.50;;
15230;SDS011;32569;51.762;8.564;2023-03-26T00:53:39;5.40;;;4.00;;
15230;SDS011;32569;51.762;8.564;2023-03-26T00:56:06;5.43;;;3.87;;
15230;SDS011;32569;51.762;8.564;2023-03-26T00:58:36;6.43;;;3.73;;
15230;SDS011;32569;51.762;8.564;2023-03-26T01:01:06;6.27;;;4.77;;
15230;SDS011;32569;51.762;8.564;2023-03-26T01:03:34;4.83;;;4.17;;
15230;SDS011;32569;51.762;8.564;2023-03-26T01:06:05;5.27;;;3.77;;
15230;SDS011;32569;51.762;8.564;2023-03-26T01:08:34;4.67;;;3.73;;
15230;SDS011;32569;51.762;8.564;2023-03-26T01:11:04;3.97;;;3.53;;
15230;SDS011;32569;51.762;8.564;2023-03-26T01:13:38;5.73;;;4.10;;
15230;SDS011;32569;51.762;8.564;2023-03-26T01:16:14;4.73;;;3.83;;
15230;SDS011;32569;51.762;8.564;2023-03-26T01:18:46;6.20;;;4.27;;
15230;SDS011;32569;51.762;8.564;2023-03-26T01:21:16;5.20;;;4.10;;
15230;SDS011;32569;51.762;8.564;2023-03-26T01:23:47;6.30;;;4.37;;
15230;SDS011;32569;51.762;8.564;2023-03-26T01:26:24;5.43;;;4.47;;
15230;SDS011;32569;51.762;8.564;2023-03-26T01:29:09;6.80;;;4.30;;
15230;SDS011;32569;51.762;8.564;2023-03-26T01:31:44;7.13;;;4.90;;
15230;SDS011;32569;51.762;8.564;2023-03-26T01:34:20;6.17;;;4.33;;
15230;SDS011;32569;51.762;8.564;2023-03-26T01:37:00;7.43;;;5.30;;
15230;SDS011;32569;51.762;8.564;2023-03-26T01:39:41;6.67;;;5.53;;
15230;SDS011;32569;51.762;8.564;2023-03-26T01:42:20;8.53;;;5.07;;
15230;SDS011;32569;51.762;8.564;2023-03-26T01:44:55;6.50;;;5.67;;
15230;SDS011;32569;51.762;8.564;2023-03-26T01:47:27;6.83;;;5.33;;
15230;SDS011;32569;51.762;8.564;2023-03-26T01:49:54;8.53;;;5.47;;
15230;SDS011;32569;51.762;8.564;2023-03-26T01:52:24;6.77;;;4.63;;
15230;SDS011;32569;51.762;8.564;2023-03-26T01:54:52;6.97;;;5.00;;
15230;SDS011;32569;51.762;8.564;2023-03-26T01:57:23;8.23;;;5.83;;
15230;SDS011;32569;51.762;8.564;2023-03-26T02:00:02;7.53;;;5.50;;
15230;SDS011;32569;51.762;8.564;2023-03-26T02:02:43;8.10;;;5.57;;
15230;SDS011;32569;51.762;8.564;2023-03-26T02:05:21;8.97;;;5.10;;
15230;SDS011;32569;51.762;8.564;2023-03-26T02:07:50;6.03;;;5.13;;
15230;SDS011;32569;51.762;8.564;2023-03-26T02:10:24;8.07;;;5.00;;
15230;SDS011;32569;51.762;8.564;2023-03-26T02:12:53;6.53;;;4.83;;
15230;SDS011;32569;51.762;8.564;2023-03-26T02:15:20;8.90;;;5.40;;
15230;SDS011;32569;51.762;8.564;2023-03-26T02:17:48;8.43;;;5.27;;
15230;SDS011;32569;51.762;8.564;2023-03-26T02:20:16;8.50;;;5.83;;
15230;SDS011;32569;51.762;8.564;2023-03-26T02:22:47;9.13;;;5.67;;
15230;SDS011;32569;51.762;8.564;2023-03-26T02:25:17;12.73;;;6.40;;
15230;SDS011;32569;51.762;8.564;2023-03-26T02:27:47;10.90;;;6.10;;
15230;SDS011;32569;51.762;8.564;2023-03-26T02:30:16;9.47;;;6.40;;
15230;SDS011;32569;51.762;8.564;2023-03-26T02:32:44;9.57;;;5.90;;
15230;SDS011;32569;51.762;8.564;2023-03-26T02:35:14;7.17;;;5.63;;
15230;SDS011;32569;51.762;8.564;2023-03-26T02:37:40;9.03;;;5.67;;
15230;SDS011;32569;51.762;8.564;2023-03-26T02:40:11;12.97;;;5.90;;
15230;SDS011;32569;51.762;8.564;2023-03-26T02:42:38;9.30;;;5.60;;
15230;SDS011;32569;51.762;8.564;2023-03-26T02:45:06;11.13;;;5.80;;
15230;SDS011;32569;51.762;8.564;2023-03-26T02:47:33;11.57;;;5.30;;
15230;SDS011;32569;51.762;8.564;2023-03-26T02:50:00;12.33;;;6.90;;
15230;SDS011;32569;51.762;8.564;2023-03-26T02:52:27;8.23;;;4.90;;
15230;SDS011;32569;51.762;8.564;2023-03-26T02:54:54;11.53;;;5.57;;
15230;SDS011;32569;51.762;8.564;2023-03-26T02:57:21;9.53;;;4.60;;
15230;SDS011;32569;51.762;8.564;2023-03-26T02:59:48;7.90;;;4.70;;
15230;SDS011;32569;51.762;8.564;2023-03-26T03:02:18;9.93;;;4.37;;
15230;SDS011;32569;51.762;8.564;2023-03-26T03:04:46;10.53;;;4.30;;
15230;SDS011;32569;51.762;8.564;2023-03-26T03:07:16;12.30;;;6.00;;
15230;SDS011;32569;51.762;8.564;2023-03-26T03:09:44;10.87;;;4.97;;
15230;SDS011;32569;51.762;8.564;2023-03-26T03:12:17;8.63;;;4.10;;
15230;SDS011;32569;51.762;8.564;2023-03-26T03:14:49;10.43;;;4.87;;
15230;SDS011;32569;51.762;8.564;2023-03-26T03:17:17;15.30;;;5.50;;
15230;SDS011;32569;51.762;8.564;2023-03-26T03:19:44;13.43;;;5.33;;
15230;SDS011;32569;51.762;8.564;2023-03-26T03:22:11;8.87;;;4.23;;
15230;SDS011;32569;51.762;8.564;2023-03-26T03:24:38;10.13;;;4.23;;
15230;SDS011;32569;51.762;8.564;2023-03-26T03:27:07;13.37;;;4.70;;
15230;SDS011;32569;51.762;8.564;2023-03-26T03:29:34;13.23;;;5.30;;
15230;SDS011;32569;51.762;8.564;2023-03-26T03:32:01;12.33;;;4.00;;
15230;SDS011;32569;51.762;8.564;2023-03-26T03:34:29;12.57;;;4.53;;
15230;SDS011;32569;51.762;8.564;2023-03-26T03:36:56;10.73;;;4.70;;
15230;SDS011;32569;51.762;8.564;2023-03-26T03:39:22;10.47;;;5.13;;
15230;SDS011;32569;51.762;8.564;2023-03-26T03:41:49;12.50;;;4.23;;
15230;SDS011;32569;51.762;8.564;2023-03-26T03:44:18;12.37;;;4.93;;
15230;SDS011;32569;51.762;8.564;2023-03-26T03:46:45;13.27;;;5.47;;
15230;SDS011;32569;51.762;8.564;2023-03-26T03:49:13;13.07;;;4.93;;
15230;SDS011;32569;51.762;8.564;2023-03-26T03:51:41;14.57;;;5.50;;
15230;SDS011;32569;51.762;8.564;2023-03-26T03:54:07;12.33;;;5.00;;
15230;SDS011;32569;51.762;8.564;2023-03-26T03:56:34;13.50;;;4.60;;
15230;SDS011;32569;51.762;8.564;2023-03-26T03:59:01;15.20;;;4.87;;
15230;SDS011;32569;51.762;8.564;2023-03-26T04:01:28;14.47;;;5.20;;
15230;SDS011;32569;51.762;8.564;2023-03-26T04:03:55;16.53;;;5.47;;
15230;SDS011;32569;51.762;8.564;2023-03-26T04:06:22;14.90;;;5.00;;
15230;SDS011;32569;51.762;8.564;2023-03-26T04:08:51;14.50;;;5.23;;
15230;SDS011;32569;51.762;8.564;2023-03-26T04:11:17;13.80;;;4.37;;
15230;SDS011;32569;51.762;8.564;2023-03-26T04:13:44;13.47;;;5.50;;
15230;SDS011;32569;51.762;8.564;2023-03-26T04:16:14;13.80;;;5.00;;
15230;SDS011;32569;51.762;8.564;2023-03-26T04:18:41;15.73;;;5.33;;
15230;SDS011;32569;51.762;8.564;2023-03-26T04:21:09;11.17;;;4.50;;
15230;SDS011;32569;51.762;8.564;2023-03-26T04:23:36;15.90;;;5.43;;
15230;SDS011;32569;51.762;8.564;2023-03-26T04:26:09;17.30;;;5.67;;
15230;SDS011;32569;51.762;8.564;2023-03-26T04:28:41;16.33;;;5.47;;
15230;SDS011;32569;51.762;8.564;2023-03-26T04:31:11;18.77;;;6.27;;
15230;SDS011;32569;51.762;8.564;2023-03-26T04:33:42;12.73;;;4.80;;
15230;SDS011;32569;51.762;8.564;2023-03-26T04:36:11;14.17;;;6.03;;
15230;SDS011;32569;51.762;8.564;2023-03-26T04:38:40;13.30;;;5.17;;
15230;SDS011;32569;51.762;8.564;2023-03-26T04:41:10;20.10;;;5.27;;
15230;SDS011;32569;51.762;8.564;2023-03-26T04:43:37;18.37;;;6.30;;
15230;SDS011;32569;51.762;8.564;2023-03-26T04:46:06;19.30;;;6.67;;
15230;SDS011;32569;51.762;8.564;2023-03-26T04:48:34;15.43;;;4.87;;
15230;SDS011;32569;51.762;8.564;2023-03-26T04:51:02;15.33;;;5.03;;
15230;SDS011;32569;51.762;8.564;2023-03-26T04:53:33;14.10;;;5.97;;
15230;SDS011;32569;51.762;8.564;2023-03-26T04:56:02;18.67;;;5.87;;
15230;SDS011;32569;51.762;8.564;2023-03-26T04:58:35;13.67;;;5.00;;
15230;SDS011;32569;51.762;8.564;2023-03-26T05:01:04;13.17;;;5.37;;
15230;SDS011;32569;51.762;8.564;2023-03-26T05:03:31;11.57;;;5.83;;
15230;SDS011;32569;51.762;8.564;2023-03-26T05:06:01;14.77;;;5.13;;
15230;SDS011;32569;51.762;8.564;2023-03-26T05:08:28;16.47;;;5.73;;
15230;SDS011;32569;51.762;8.564;2023-03-26T05:10:55;11.50;;;5.23;;
15230;SDS011;32569;51.762;8.564;2023-03-26T05:13:21;14.33;;;5.47;;
15230;SDS011;32569;51.762;8.564;2023-03-26T05:16:01;18.10;;;6.23;;
15230;SDS011;32569;51.762;8.564;2023-03-26T05:18:28;17.60;;;5.70;;
15230;SDS011;32569;51.762;8.564;2023-03-26T05:20:56;13.43;;;5.23;;
15230;SDS011;32569;51.762;8.564;2023-03-26T05:23:23;15.53;;;6.40;;
15230;SDS011;32569;51.762;8.564;2023-03-26T05:25:49;20.67;;;5.40;;
15230;SDS011;32569;51.762;8.564;2023-03-26T05:28:16;19.43;;;6.23;;
15230;SDS011;32569;51.762;8.564;2023-03-26T05:30:44;14.17;;;4.93;;
15230;SDS011;32569;51.762;8.564;2023-03-26T05:33:15;14.37;;;4.87;;
15230;SDS011;32569;51.762;8.564;2023-03-26T05:35:43;14.10;;;5.57;;
15230;SDS011;32569;51.762;8.564;2023-03-26T05:38:10;17.83;;;5.50;;
15230;SDS011;32569;51.762;8.564;2023-03-26T05:40:36;13.07;;;5.10;;
15230;SDS011;32569;51.762;8.564;2023-03-26T05:43:03;14.60;;;5.63;;
15230;SDS011;32569;51.762;8.564;2023-03-26T05:45:30;15.90;;;5.97;;
15230;SDS011;32569;51.762;8.564;2023-03-26T05:47:56;16.63;;;6.17;;
15230;SDS011;32569;51.762;8.564;2023-03-26T05:50:27;13.50;;;5.57;;
15230;SDS011;32569;51.762;8.564;2023-03-26T05:52:56;18.30;;;6.57;;
15230;SDS011;32569;51.762;8.564;2023-03-26T05:55:23;17.03;;;6.97;;
15230;SDS011;32569;51.762;8.564;2023-03-26T05:57:52;16.17;;;6.00;;
15230;SDS011;32569;51.762;8.564;2023-03-26T06:00:19;15.10;;;5.63;;
15230;SDS011;32569;51.762;8.564;2023-03-26T06:02:48;16.60;;;5.40;;
15230;SDS011;32569;51.762;8.564;2023-03-26T06:05:14;20.47;;;5.20;;
15230;SDS011;32569;51.762;8.564;2023-03-26T06:07:42;19.23;;;6.40;;
15230;SDS011;32569;51.762;8.564;2023-03-26T06:10:09;18.03;;;5.70;;
15230;SDS011;32569;51.762;8.564;2023-03-26T06:12:36;17.43;;;6.07;;
15230;SDS011;32569;51.762;8.564;2023-03-26T06:15:03;15.77;;;5.63;;
15230;SDS011;32569;51.762;8.564;2023-03-26T06:17:30;17.77;;;5.30;;
15230;SDS011;32569;51.762;8.564;2023-03-26T06:19:57;14.23;;;5.60;;
15230;SDS011;32569;51.762;8.564;2023-03-26T06:22:23;13.77;;;5.80;;
15230;SDS011;32569;51.762;8.564;2023-03-26T06:24:51;14.93;;;5.40;;
15230;SDS011;32569;51.762;8.564;2023-03-26T06:27:21;18.33;;;6.20;;
15230;SDS011;32569;51.762;8.564;2023-03-26T06:29:47;16.83;;;6.20;;
15230;SDS011;32569;51.762;8.564;2023-03-26T06:32:14;16.07;;;5.53;;
15230;SDS011;32569;51.762;8.564;2023-03-26T06:34:41;19.27;;;5.80;;
15230;SDS011;32569;51.762;8.564;2023-03-26T06:37:07;13.07;;;5.70;;
15230;SDS011;32569;51.762;8.564;2023-03-26T06:39:34;17.00;;;6.53;;
15230;SDS011;32569;51.762;8.564;2023-03-26T06:42:02;12.20;;;5.87;;
15230;SDS011;32569;51.762;8.564;2023-03-26T06:44:29;18.90;;;6.23;;
15230;SDS011;32569;51.762;8.564;2023-03-26T06:46:55;19.50;;;5.97;;
15230;SDS011;32569;51.762;8.564;2023-03-26T06:49:22;17.27;;;6.30;;
15230;SDS011;32569;51.762;8.564;2023-03-26T06:51:49;19.57;;;6.93;;
15230;SDS011;32569;51.762;8.564;2023-03-26T06:54:15;16.53;;;6.17;;
15230;SDS011;32569;51.762;8.564;2023-03-26T06:56:42;18.27;;;6.27;;
15230;SDS011;32569;51.762;8.564;2023-03-26T06:59:11;15.10;;;7.57;;
15230;SDS011;32569;51.762;8.564;2023-03-26T07:01:37;22.70;;;7.27;;
15230;SDS011;32569;51.762;8.564;2023-03-26T07:04:04;19.27;;;6.73;;
15230;SDS011;32569;51.762;8.564;2023-03-26T07:06:34;20.50;;;5.80;;
15230;SDS011;32569;51.762;8.564;2023-03-26T07:09:00;14.50;;;6.03;;
15230;SDS011;32569;51.762;8.564;2023-03-26T07:11:27;14.50;;;5.97;;
15230;SDS011;32569;51.762;8.564;2023-03-26T07:13:54;18.03;;;7.37;;
15230;SDS011;32569;51.762;8.564;2023-03-26T07:16:22;23.83;;;11.00;;
15230;SDS011;32569;51.762;8.564;2023-03-26T07:18:49;18.43;;;9.40;;
15230;SDS011;32569;51.762;8.564;2023-03-26T07:21:16;22.53;;;8.50;;
15230;SDS011;32569;51.762;8.564;2023-03-26T07:23:44;20.07;;;7.53;;
15230;SDS011;32569;51.762;8.564;2023-03-26T07:26:12;14.33;;;6.13;;
15230;SDS011;32569;51.762;8.564;2023-03-26T07:28:49;18.47;;;6.00;;
15230;SDS011;32569;51.762;8.564;2023-03-26T07:31:25;20.07;;;6.33;;
15230;SDS011;32569;51.762;8.564;2023-03-26T07:34:00;12.50;;;6.23;;
15230;SDS011;32569;51.762;8.564;2023-03-26T07:36:34;15.83;;;6.07;;
15230;SDS011;32569;51.762;8.564;2023-03-26T07:39:12;21.87;;;6.27;;
15230;SDS011;32569;51.762;8.564;2023-03-26T07:41:48;18.67;;;7.33;;
15230;SDS011;32569;51.762;8.564;2023-03-26T07:44:21;19.23;;;6.13;;
15230;SDS011;32569;51.762;8.564;2023-03-26T07:46:59;14.97;;;5.83;;
15230;SDS011;32569;51.762;8.564;2023-03-26T07:49:29;17.03;;;5.73;;
15230;SDS011;32569;51.762;8.564;2023-03-26T07:51:56;16.30;;;5.80;;
15230;SDS011;32569;51.762;8.564;2023-03-26T07:54:26;16.47;;;6.07;;
15230;SDS011;32569;51.762;8.564;2023-03-26T07:56:54;18.97;;;6.47;;
15230;SDS011;32569;51.762;8.564;2023-03-26T07:59:25;13.50;;;6.67;;
15230;SDS011;32569;51.762;8.564;2023-03-26T08:01:59;12.57;;;5.53;;
15230;SDS011;32569;51.762;8.564;2023-03-26T08:04:53;13.03;;;5.73;;
15230;SDS011;32569;51.762;8.564;2023-03-26T08:07:32;17.20;;;6.43;;
15230;SDS011;32569;51.762;8.564;2023-03-26T08:10:13;21.90;;;5.73;;
15230;SDS011;32569;51.762;8.564;2023-03-26T08:12:46;14.63;;;5.83;;
15230;SDS011;32569;51.762;8.564;2023-03-26T08:15:21;13.87;;;5.27;;
15230;SDS011;32569;51.762;8.564;2023-03-26T08:17:58;14.50;;;5.40;;
15230;SDS011;32569;51.762;8.564;2023-03-26T08:20:31;17.47;;;5.77;;
15230;SDS011;32569;51.762;8.564;2023-03-26T08:23:06;15.20;;;5.87;;
15230;SDS011;32569;51.762;8.564;2023-03-26T08:25:40;17.20;;;6.23;;
15230;SDS011;32569;51.762;8.564;2023-03-26T08:28:25;13.80;;;5.43;;
15230;SDS011;32569;51.762;8.564;2023-03-26T08:31:04;14.27;;;5.80;;
15230;SDS011;32569;51.762;8.564;2023-03-26T08:33:34;13.03;;;5.37;;
15230;SDS011;32569;51.762;8.564;2023-03-26T08:36:00;17.23;;;5.97;;
15230;SDS011;32569;51.762;8.564;2023-03-26T08:38:27;15.27;;;5.37;;
15230;SDS011;32569;51.762;8.564;2023-03-26T08:41:07;16.77;;;6.57;;
15230;SDS011;32569;51.762;8.564;2023-03-26T08:47:08;10.33;;;5.43;;
15230;SDS011;32569;51.762;8.564;2023-03-26T08:49:56;17.27;;;6.47;;
15230;SDS011;32569;51.762;8.564;2023-03-26T08:53:05;13.00;;;5.90;;
15230;SDS011;32569;51.762;8.564;2023-03-26T08:55:57;14.97;;;5.70;;
15230;SDS011;32569;51.762;8.564;2023-03-26T08:58:54;14.40;;;6.27;;
15230;SDS011;32569;51.762;8.564;2023-03-26T09:01:51;11.87;;;4.83;;
15230;SDS011;32569;51.762;8.564;2023-03-26T09:11:11;13.83;;;5.47;;
15230;SDS011;32569;51.762;8.564;2023-03-26T09:14:10;16.00;;;6.47;;
15230;SDS011;32569;51.762;8.564;2023-03-26T09:17:04;13.27;;;5.20;;
15230;SDS011;32569;51.762;8.564;2023-03-26T09:20:25;12.13;;;5.23;;
15230;SDS011;32569;51.762;8.564;2023-03-26T09:23:13;15.27;;;5.00;;
15230;SDS011;32569;51.762;8.564;2023-03-26T09:26:03;13.07;;;5.90;;
15230;SDS011;32569;51.762;8.564;2023-03-26T09:28:55;11.87;;;4.83;;
15230;SDS011;32569;51.762;8.564;2023-03-26T09:32:06;14.97;;;5.57;;
15230;SDS011;32569;51.762;8.564;2023-03-26T09:35:02;13.50;;;5.20;;
15230;SDS011;32569;51.762;8.564;2023-03-26T09:37:41;17.97;;;6.10;;
15230;SDS011;32569;51.762;8.564;2023-03-26T09:40:17;15.57;;;5.80;;
15230;SDS011;32569;51.762;8.564;2023-03-26T09:42:52;12.27;;;4.97;;
15230;SDS011;32569;51.762;8.564;2023-03-26T09:45:29;10.97;;;5.37;;
15230;SDS011;32569;51.762;8.564;2023-03-26T09:48:26;15.43;;;5.13;;
15230;SDS011;32569;51.762;8.564;2023-03-26T09:51:14;15.43;;;4.80;;
15230;SDS011;32569;51.762;8.564;2023-03-26T09:54:02;11.27;;;4.70;;
15230;SDS011;32569;51.762;8.564;2023-03-26T09:56:42;13.27;;;5.30;;
15230;SDS011;32569;51.762;8.564;2023-03-26T09:59:21;10.70;;;4.53;;
15230;SDS011;32569;51.762;8.564;2023-03-26T10:02:15;11.87;;;4.73;;
15230;SDS011;32569;51.762;8.564;2023-03-26T10:04:59;12.77;;;4.70;;
15230;SDS011;32569;51.762;8.564;2023-03-26T10:07:45;12.87;;;5.47;;
15230;SDS011;32569;51.762;8.564;2023-03-26T10:10:24;17.53;;;5.30;;
15230;SDS011;32569;51.762;8.564;2023-03-26T10:12:57;11.80;;;5.27;;
15230;SDS011;32569;51.762;8.564;2023-03-26T10:15:33;13.53;;;5.00;;
15230;SDS011;32569;51.762;8.564;2023-03-26T10:18:12;9.33;;;4.17;;
15230;SDS011;32569;51.762;8.564;2023-03-26T10:20:54;10.53;;;4.43;;
15230;SDS011;32569;51.762;8.564;2023-03-26T10:23:37;9.47;;;3.90;;
15230;SDS011;32569;51.762;8.564;2023-03-26T10:26:20;10.70;;;4.60;;
15230;SDS011;32569;51.762;8.564;2023-03-26T10:29:02;10.43;;;5.17;;
15230;SDS011;32569;51.762;8.564;2023-03-26T10:31:45;9.17;;;4.27;;
15230;SDS011;32569;51.762;8.564;2023-03-26T10:34:25;15.07;;;4.97;;
15230;SDS011;32569;51.762;8.564;2023-03-26T10:37:07;10.63;;;5.20;;
15230;SDS011;32569;51.762;8.564;2023-03-26T10:39:44;7.07;;;4.43;;
15230;SDS011;32569;51.762;8.564;2023-03-26T10:42:31;10.23;;;4.30;;
15230;SDS011;32569;51.762;8.564;2023-03-26T10:45:11;8.97;;;4.73;;
15230;SDS011;32569;51.762;8.564;2023-03-26T10:50:50;9.23;;;3.90;;
15230;SDS011;32569;51.762;8.564;2023-03-26T10:53:25;10.00;;;4.40;;
15230;SDS011;32569;51.762;8.564;2023-03-26T10:55:59;11.67;;;4.37;;
15230;SDS011;32569;51.762;8.564;2023-03-26T10:58:34;9.70;;;4.60;;
15230;SDS011;32569;51.762;8.564;2023-03-26T11:01:02;6.80;;;3.60;;
15230;SDS011;32569;51.762;8.564;2023-03-26T11:06:23;11.60;;;4.13;;
15230;SDS011;32569;51.762;8.564;2023-03-26T11:08:56;8.07;;;3.83;;
15230;SDS011;32569;51.762;8.564;2023-03-26T11:11:37;8.43;;;4.03;;
15230;SDS011;32569;51.762;8.564;2023-03-26T11:14:10;10.20;;;3.83;;
15230;SDS011;32569;51.762;8.564;2023-03-26T11:16:46;9.43;;;4.30;;
15230;SDS011;32569;51.762;8.564;2023-03-26T11:19:20;10.13;;;4.27;;
15230;SDS011;32569;51.762;8.564;2023-03-26T11:21:55;8.40;;;3.57;;
15230;SDS011;32569;51.762;8.564;2023-03-26T11:27:15;8.47;;;4.23;;
15230;SDS011;32569;51.762;8.564;2023-03-26T11:29:50;6.57;;;3.23;;
15230;SDS011;32569;51.762;8.564;2023-03-26T11:32:24;6.20;;;3.07;;
15230;SDS011;32569;51.762;8.564;2023-03-26T11:34:59;3.00;;;2.53;;
15230;SDS011;32569;51.762;8.564;2023-03-26T11:37:31;2.67;;;2.20;;
15230;SDS011;32569;51.762;8.564;2023-03-26T11:40:00;3.93;;;2.40;;
15230;SDS011;32569;51.762;8.564;2023-03-26T11:42:30;2.77;;;2.30;;
15230;SDS011;32569;51.762;8.564;2023-03-26T11:44:58;3.37;;;2.30;;
15230;SDS011;32569;51.762;8.564;2023-03-26T11:47:29;3.60;;;2.80;;
15230;SDS011;32569;51.762;8.564;2023-03-26T11:50:00;4.63;;;2.60;;
15230;SDS011;32569;51.762;8.564;2023-03-26T11:52:31;5.17;;;2.80;;
15230;SDS011;32569;51.762;8.564;2023-03-26T11:54:57;6.67;;;3.27;;
15230;SDS011;32569;51.762;8.564;2023-03-26T11:57:24;5.43;;;2.77;;
15230;SDS011;32569;51.762;8.564;2023-03-26T11:59:55;5.17;;;3.20;;
15230;SDS011;32569;51.762;8.564;2023-03-26T12:02:28;3.93;;;2.87;;
15230;SDS011;32569;51.762;8.564;2023-03-26T12:05:09;6.23;;;4.33;;
15230;SDS011;32569;51.762;8.564;2023-03-26T12:07:43;4.17;;;3.13;;
15230;SDS011;32569;51.762;8.564;2023-03-26T12:10:22;3.33;;;2.30;;
15230;SDS011;32569;51.762;8.564;2023-03-26T12:12:52;4.87;;;2.33;;
15230;SDS011;32569;51.762;8.564;2023-03-26T12:15:21;2.90;;;1.90;;
15230;SDS011;32569;51.762;8.564;2023-03-26T12:17:48;2.53;;;2.00;;
15230;SDS011;32569;51.762;8.564;2023-03-26T12:20:29;5.83;;;5.20;;
15230;SDS011;32569;51.762;8.564;2023-03-26T12:22:59;2.87;;;2.17;;
15230;SDS011;32569;51.762;8.564;2023-03-26T12:25:27;1.97;;;1.87;;
15230;SDS011;32569;51.762;8.564;2023-03-26T12:27:56;2.93;;;2.53;;
15230;SDS011;32569;51.762;8.564;2023-03-26T12:30:27;3.13;;;2.03;;
15230;SDS011;32569;51.762;8.564;2023-03-26T12:32:58;2.57;;;1.80;;
15230;SDS011;32569;51.762;8.564;2023-03-26T12:35:29;3.07;;;2.33;;
15230;SDS011;32569;51.762;8.564;2023-03-26T12:38:15;4.90;;;2.77;;
15230;SDS011;32569;51.762;8.564;2023-03-26T12:40:47;3.23;;;2.43;;
15230;SDS011;32569;51.762;8.564;2023-03-26T12:43:21;4.60;;;2.53;;
15230;SDS011;32569;51.762;8.564;2023-03-26T12:45:52;10.00;;;9.10;;
15230;SDS011;32569;51.762;8.564;2023-03-26T12:48:22;4.67;;;2.80;;
15230;SDS011;32569;51.762;8.564;2023-03-26T12:50:55;6.87;;;5.20;;
15230;SDS011;32569;51.762;8.564;2023-03-26T12:53:33;6.27;;;5.17;;
15230;SDS011;32569;51.762;8.564;2023-03-26T12:56:22;4.63;;;3.40;;
15230;SDS011;32569;51.762;8.564;2023-03-26T12:59:04;6.63;;;3.20;;
15230;SDS011;32569;51.762;8.564;2023-03-26T13:01:53;6.57;;;3.47;;
15230;SDS011;32569;51.762;8.564;2023-03-26T13:04:31;14.73;;;9.90;;
15230;SDS011;32569;51.762;8.564;2023-03-26T13:07:22;4.73;;;4.20;;
15230;SDS011;32569;51.762;8.564;2023-03-26T13:10:03;6.03;;;3.43;;
15230;SDS011;32569;51.762;8.564;2023-03-26T13:12:54;6.90;;;3.90;;
15230;SDS011;32569;51.762;8.564;2023-03-26T13:15:34;11.20;;;4.57;;
15230;SDS011;32569;51.762;8.564;2023-03-26T13:18:09;9.83;;;4.63;;
15230;SDS011;32569;51.762;8.564;2023-03-26T13:20:47;7.50;;;4.23;;
15230;SDS011;32569;51.762;8.564;2023-03-26T13:23:21;5.43;;;4.23;;
15230;SDS011;32569;51.762;8.564;2023-03-26T13:26:00;8.33;;;4.37;;
15230;SDS011;32569;51.762;8.564;2023-03-26T13:28:35;6.23;;;3.50;;
15230;SDS011;32569;51.762;8.564;2023-03-26T13:31:10;4.07;;;3.47;;
15230;SDS011;32569;51.762;8.564;2023-03-26T13:33:46;4.27;;;3.33;;
15230;SDS011;32569;51.762;8.564;2023-03-26T13:36:17;4.37;;;2.50;;
15230;SDS011;32569;51.762;8.564;2023-03-26T13:38:52;5.83;;;2.50;;
15230;SDS011;32569;51.762;8.564;2023-03-26T13:41:32;4.53;;;3.10;;
15230;SDS011;32569;51.762;8.564;2023-03-26T13:44:11;9.07;;;6.70;;
15230;SDS011;32569;51.762;8.564;2023-03-26T13:46:47;7.37;;;3.83;;
15230;SDS011;32569;51.762;8.564;2023-03-26T13:49:26;4.13;;;3.37;;
15230;SDS011;32569;51.762;8.564;2023-03-26T13:52:01;5.10;;;3.30;;
15230;SDS011;32569;51.762;8.564;2023-03-26T13:54:35;3.97;;;3.60;;
15230;SDS011;32569;51.762;8.564;2023-03-26T13:57:06;9.13;;;4.00;;
15230;SDS011;32569;51.762;8.564;2023-03-26T13:59:36;5.37;;;3.50;;
15230;SDS011;32569;51.762;8.564;2023-03-26T14:02:07;3.50;;;2.93;;
15230;SDS011;32569;51.762;8.564;2023-03-26T14:04:39;6.03;;;3.03;;
15230;SDS011;32569;51.762;8.564;2023-03-26T14:07:11;5.17;;;2.70;;
15230;SDS011;32569;51.762;8.564;2023-03-26T14:09:45;3.47;;;2.77;;
15230;SDS011;32569;51.762;8.564;2023-03-26T14:12:25;4.03;;;3.40;;
15230;SDS011;32569;51.762;8.564;2023-03-26T14:14:59;5.53;;;3.57;;
15230;SDS011;32569;51.762;8.564;2023-03-26T14:17:30;3.57;;;2.60;;
15230;SDS011;32569;51.762;8.564;2023-03-26T14:20:19;3.60;;;1.93;;
15230;SDS011;32569;51.762;8.564;2023-03-26T14:23:16;1.57;;;1.47;;
15230;SDS011;32569;51.762;8.564;2023-03-26T14:26:07;6.60;;;4.17;;
15230;SDS011;32569;51.762;8.564;2023-03-26T14:28:50;4.30;;;3.43;;
15230;SDS011;32569;51.762;8.564;2023-03-26T14:31:32;3.80;;;2.27;;
15230;SDS011;32569;51.762;8.564;2023-03-26T14:34:10;3.17;;;2.07;;
15230;SDS011;32569;51.762;8.564;2023-03-26T14:36:56;4.37;;;2.70;;
15230;SDS011;32569;51.762;8.564;2023-03-26T14:39:52;2.30;;;2.10;;
15230;SDS011;32569;51.762;8.564;2023-03-26T14:42:45;3.10;;;1.90;;
15230;SDS011;32569;51.762;8.564;2023-03-26T14:45:32;3.00;;;2.03;;
15230;SDS011;32569;51.762;8.564;2023-03-26T14:51:15;4.43;;;2.10;;
15230;SDS011;32569;51.762;8.564;2023-03-26T14:53:52;2.90;;;1.90;;
15230;SDS011;32569;51.762;8.564;2023-03-26T14:56:30;2.47;;;2.20;;
15230;SDS011;32569;51.762;8.564;2023-03-26T14:59:31;3.50;;;2.50;;
15230;SDS011;32569;51.762;8.564;2023-03-26T15:09:15;5.97;;;2.50;;
15230;SDS011;32569;51.762;8.564;2023-03-26T15:12:07;5.07;;;2.90;;
15230;SDS011;32569;51.762;8.564;2023-03-26T15:14:43;5.00;;;3.53;;
15230;SDS011;32569;51.762;8.564;2023-03-26T15:17:51;3.37;;;2.50;;
15230;SDS011;32569;51.762;8.564;2023-03-26T15:21:05;4.77;;;2.80;;
15230;SDS011;32569;51.762;8.564;2023-03-26T15:27:28;3.67;;;2.30;;
15230;SDS011;32569;51.762;8.564;2023-03-26T15:36:29;4.70;;;2.27;;
15230;SDS011;32569;51.762;8.564;2023-03-26T15:42:35;3.53;;;2.77;;
15230;SDS011;32569;51.762;8.564;2023-03-26T15:51:03;4.47;;;3.00;;
15230;SDS011;32569;51.762;8.564;2023-03-26T15:53:45;5.07;;;4.47;;
15230;SDS011;32569;51.762;8.564;2023-03-26T15:56:25;5.97;;;3.33;;
15230;SDS011;32569;51.762;8.564;2023-03-26T15:59:05;6.27;;;3.80;;
15230;SDS011;32569;51.762;8.564;2023-03-26T16:01:45;5.87;;;4.00;;
15230;SDS011;32569;51.762;8.564;2023-03-26T16:04:28;6.70;;;4.70;;
15230;SDS011;32569;51.762;8.564;2023-03-26T16:07:07;5.43;;;4.83;;
15230;SDS011;32569;51.762;8.564;2023-03-26T16:09:54;8.27;;;5.07;;